Olden, TX (76466)

7:37 AM CDT on August 30, 2015 (GMT -0500)
EBAA IRON | | Change Station
CLOSE
Current Station
Personal Weather Station
Location: Eastland, TX
Elevation: 1437 ft
Nearby Weather Stations

Elev 1437 ft 32.37 °N, 98.77 °W | Updated 3 minutes ago

Clear
Clear
72.7 °F
Feels Like 76 °F
N
0.0
Wind Variable Wind from West

Today
High -- | Low -- °F
--% Chance of Precip.
Yesterday
High -- | Low -- °F
Precip. -- in
7:08 AM 8:02 PM
Full, 99% visible
Pressure 30.03 in
Visibility 10.0 miles
Clouds Clear
Heat Index 76 °F
Dew Point 61 °F
Humidity 66%
Rainfall 0.00 in
Snow Depth Not available.
UV 0 out of 12
Pollen 8.30 out of 12
Air Quality Not available.
Flu Activity Not available.
METAR KBKD 301215Z AUTO 00000KT 10SM CLR 22/15 A3003 RMK AO2 T02180149
Pressure 30.03 in
Visibility 10.0 miles
Clouds Clear
Heat Index 76 °F
Dew Point 61 °F
Humidity 66%
Rainfall 0.00 in
Snow Depth Not available.
UV 0 out of 12
Pollen 8.30 out of 12
Air Quality Not available.
Flu Activity Not available.
METAR KBKD 301215Z AUTO 00000KT 10SM CLR 22/15 A3003 RMK AO2 T02180149
Nowcast | as of 6:29 am CDT on August 30, 2015

Areas of sprinkles and very light rain will continue through mid morning across north and central Texas....especially along and south of a Breckenridge to Waxahachie to Athens line. Rainfall amounts are expected to remain very light with totals generally less than one tenth of an inch. Otherwise...conditions will remain mild with temperatures in the 70s and light and variable winds through sunrise. Thereafter...temperatures are expected to climb into the 80s with partly sunny skies.

×

10-Day Weather Forecast

×

Almanac

Astronomy

Aug. 30, 2015 Rise Set
Actual Time
Civil Twilight
Nautical Twilight
Astronomical Twilight
Moon
Length of Visible Light
Length of Day
Tomorrow will be .
, % of the Moon is Illuminated

Today's Extremes

State Highs State Lows

Community

WunderPhotos

Upload Photos

1,850,940 photos uploaded!

WunderBlogs® & News

Nearby

Air Quality

  Air Quality AQ Index Pollutant
Not available.

Snow Depth

Station Depth Elevation

Earthquake Activity

City Distance Mag. Time & Date
Minimum magnitude displayed is 2.5.

Coastal Water Temperatures

Place Temperature

Stations

Nearby Weather Stations

Station Location Temp. Windchill Dew Point Humidity Wind Precip. Elev Updated Type